Time;durP1;ratioP1;P1;durP2;ratioP2;P2;SDS_P1;SDS_P2;PMS_P1;PMS_P2;Temp;Humidity;BMP_temperature;BMP_pressure;BME280_temperature;BME280_humidity;BME280_pressure;Samples;Min_cycle;Max_cycle;Signal;HPM_P1;HPM_P2
2021/05/26 00:02:21;;;;;;;1.48;0.30;;;12.90;80.00;;;;;;4893743;29;20544;-63
2021/05/26 00:04:48;;;;;;;1.25;0.25;;;12.80;79.70;;;;;;4893373;29;20045;-63
2021/05/26 00:07:15;;;;;;;3.17;0.90;;;12.70;80.40;;;;;;4888096;29;20045;-62
2021/05/26 00:09:42;;;;;;;5.43;0.30;;;12.60;81.00;;;;;;4894777;29;20040;-63
2021/05/26 00:12:12;;;;;;;2.95;0.20;;;12.50;80.80;;;;;;4893621;29;20068;-63
2021/05/26 00:14:40;;;;;;;1.35;0.10;;;12.50;82.40;;;;;;4892974;29;20049;-63
2021/05/26 00:17:07;;;;;;;1.92;0.30;;;12.40;81.50;;;;;;4893657;29;20048;-63
2021/05/26 00:19:37;;;;;;;1.98;0.35;;;12.30;82.60;;;;;;4895008;29;20048;-62
2021/05/26 00:22:04;;;;;;;1.13;0.20;;;12.20;82.40;;;;;;4895589;29;20041;-62
2021/05/26 00:24:31;;;;;;;1.77;0.10;;;12.20;82.40;;;;;;4893221;29;20076;-63
2021/05/26 00:26:58;;;;;;;1.23;0.20;;;12.20;83.40;;;;;;4892459;29;20045;-63
2021/05/26 00:29:25;;;;;;;1.38;0.28;;;12.10;82.80;;;;;;4893946;29;20053;-63
2021/05/26 00:31:52;;;;;;;3.08;0.75;;;12.10;83.00;;;;;;4891518;29;20051;-62
2021/05/26 00:34:19;;;;;;;1.33;0.20;;;12.10;82.50;;;;;;4895705;29;20041;-63
2021/05/26 00:36:46;;;;;;;2.05;0.20;;;12.00;82.90;;;;;;4890356;29;20044;-63
2021/05/26 00:39:13;;;;;;;0.65;0.20;;;12.00;83.30;;;;;;4894282;29;20056;-63
2021/05/26 00:41:41;;;;;;;3.13;0.25;;;12.10;83.30;;;;;;4893337;29;20049;-63
2021/05/26 00:44:08;;;;;;;5.00;0.30;;;12.00;83.00;;;;;;4892614;29;20075;-63
2021/05/26 00:46:40;;;;;;;0.82;0.20;;;12.00;82.90;;;;;;4891774;29;20497;-63
2021/05/26 00:49:07;;;;;;;0.90;0.22;;;11.90;83.30;;;;;;4895943;29;20059;-62
2021/05/26 00:51:35;;;;;;;1.63;0.20;;;11.90;84.60;;;;;;4898264;29;20064;-63
2021/05/26 00:54:03;;;;;;;1.98;0.20;;;11.90;84.20;;;;;;4896687;29;20067;-63
2021/05/26 00:56:32;;;;;;;1.00;0.15;;;11.70;84.30;;;;;;4898125;29;20048;-63
2021/05/26 00:59:04;;;;;;;0.98;0.20;;;11.70;85.30;;;;;;4899482;29;20056;-63
2021/05/26 01:01:32;;;;;;;1.15;0.30;;;11.60;86.50;;;;;;4897671;29;20503;-62
2021/05/26 01:04:00;;;;;;;3.53;0.30;;;11.50;86.50;;;;;;4890587;29;20045;-63
2021/05/26 01:06:27;;;;;;;0.90;0.20;;;11.40;85.90;;;;;;4896285;29;20048;-63
2021/05/26 01:08:54;;;;;;;0.95;0.15;;;11.40;85.70;;;;;;4898122;29;20045;-63
2021/05/26 01:11:22;;;;;;;1.52;0.65;;;11.50;86.10;;;;;;4897133;29;20072;-63
2021/05/26 01:13:49;;;;;;;2.05;0.30;;;11.40;85.90;;;;;;4896833;29;20141;-62
2021/05/26 01:16:17;;;;;;;2.22;0.22;;;11.30;87.20;;;;;;4896215;29;20374;-63
2021/05/26 01:18:44;;;;;;;1.38;0.70;;;11.30;87.80;;;;;;4895745;29;20040;-62
2021/05/26 01:21:16;;;;;;;1.48;0.20;;;11.20;87.30;;;;;;4903674;29;20135;-63
2021/05/26 01:23:47;;;;;;;2.28;0.38;;;11.20;87.40;;;;;;4899775;29;20124;-63
2021/05/26 01:26:18;;;;;;;2.80;0.20;;;11.20;88.30;;;;;;4898995;29;20118;-63
2021/05/26 01:28:45;;;;;;;1.48;0.30;;;11.30;87.00;;;;;;4897521;29;20040;-63
2021/05/26 01:31:14;;;;;;;2.13;0.30;;;11.30;86.50;;;;;;4891614;29;20056;-63
2021/05/26 01:33:42;;;;;;;0.60;0.20;;;11.40;86.80;;;;;;4892740;29;20045;-62
2021/05/26 01:36:14;;;;;;;1.77;0.25;;;11.40;86.90;;;;;;4891711;29;20124;-62
2021/05/26 01:38:42;;;;;;;1.05;0.22;;;11.30;88.10;;;;;;4895881;29;20056;-62
2021/05/26 01:41:09;;;;;;;1.10;0.30;;;11.20;87.80;;;;;;4895336;29;20100;-63
2021/05/26 01:43:39;;;;;;;0.90;0.10;;;11.20;87.70;;;;;;4895369;29;20271;-63
2021/05/26 01:46:07;;;;;;;0.90;0.10;;;11.20;87.60;;;;;;4892209;29;20063;-63
2021/05/26 01:48:34;;;;;;;1.77;0.30;;;11.20;87.60;;;;;;4896509;29;20044;-62
2021/05/26 01:51:03;;;;;;;0.60;0.20;;;11.20;87.50;;;;;;4898008;29;20041;-63
2021/05/26 01:53:32;;;;;;;0.95;0.20;;;11.20;88.30;;;;;;4897593;29;20476;-63
2021/05/26 01:56:00;;;;;;;2.28;0.22;;;11.20;88.70;;;;;;4900737;29;20048;-63
2021/05/26 01:58:33;;;;;;;;;;;11.20;88.50;;;;;;4898069;29;20048;-63
2021/05/26 02:01:03;;;;;;;1.60;0.28;;;11.10;88.60;;;;;;4891972;29;20351;-63
2021/05/26 02:03:31;;;;;;;0.95;0.30;;;11.10;88.10;;;;;;4909443;29;20108;-62
2021/05/26 02:05:58;;;;;;;1.20;0.30;;;11.10;89.00;;;;;;4896894;29;20055;-63
2021/05/26 02:08:26;;;;;;;3.22;0.30;;;11.00;89.00;;;;;;4894888;29;20056;-63
2021/05/26 02:13:39;;;;;;;2.95;0.38;;;10.90;89.20;;;;;;4912455;29;20112;-62
2021/05/26 02:16:06;;;;;;;1.48;0.30;;;10.90;89.30;;;;;;4910129;29;20041;-63
2021/05/26 02:18:34;;;;;;;0.95;0.38;;;10.80;89.70;;;;;;4897540;29;20056;-63
2021/05/26 02:21:01;;;;;;;2.97;0.60;;;10.80;90.20;;;;;;4898279;29;20036;-63
2021/05/26 02:23:28;;;;;;;1.38;0.43;;;10.70;90.30;;;;;;4897928;29;20044;-62
2021/05/26 02:25:58;;;;;;;2.78;0.50;;;10.70;90.70;;;;;;4895566;29;20032;-62
2021/05/26 02:28:25;;;;;;;1.38;0.30;;;10.60;90.60;;;;;;4895304;29;20556;-63
2021/05/26 02:30:53;;;;;;;1.98;0.40;;;10.60;90.70;;;;;;4891914;29;20064;-63
2021/05/26 02:33:21;;;;;;;1.33;0.30;;;10.60;90.70;;;;;;4894188;29;20060;-63
2021/05/26 02:35:49;;;;;;;2.33;0.32;;;10.50;90.80;;;;;;4879643;29;20088;-63
2021/05/26 02:38:16;;;;;;;2.72;0.50;;;10.40;91.10;;;;;;4895175;29;20139;-62
2021/05/26 02:40:44;;;;;;;2.00;0.45;;;10.40;91.10;;;;;;4895924;29;20044;-63
2021/05/26 02:43:22;;;;;;;2.50;0.40;;;10.40;91.30;;;;;;4895303;29;20135;-65
2021/05/26 02:45:51;;;;;;;1.58;0.30;;;10.40;91.20;;;;;;4893570;29;20052;-63
2021/05/26 02:48:18;;;;;;;0.55;0.25;;;10.40;91.20;;;;;;4897274;29;20511;-62
2021/05/26 02:50:46;;;;;;;2.60;0.45;;;10.50;90.90;;;;;;4897012;29;20516;-62
2021/05/26 02:53:15;;;;;;;1.15;0.60;;;10.60;90.80;;;;;;4892732;29;20048;-62
2021/05/26 02:55:42;;;;;;;1.45;0.73;;;10.60;90.60;;;;;;4894339;29;20057;-62
2021/05/26 02:58:32;;;;;;;4.07;0.47;;;10.80;90.40;;;;;;4894469;29;20048;-63
2021/05/26 03:01:17;;;;;;;2.78;0.30;;;10.80;89.80;;;;;;4885027;29;20415;-63
2021/05/26 03:03:55;;;;;;;5.40;0.75;;;10.70;90.00;;;;;;4896837;29;20063;-63
2021/05/26 03:06:30;;;;;;;2.50;0.30;;;10.60;90.20;;;;;;4896455;29;20444;-63
2021/05/26 03:08:57;;;;;;;3.25;0.50;;;10.50;90.90;;;;;;4896359;29;20052;-63
2021/05/26 03:11:33;;;;;;;2.60;0.38;;;10.40;90.80;;;;;;4895042;29;20527;-63
2021/05/26 03:14:09;;;;;;;8.07;0.52;;;10.30;91.30;;;;;;4895662;29;20450;-62
2021/05/26 03:16:38;;;;;;;1.65;0.35;;;10.20;91.20;;;;;;4892141;29;20059;-62
2021/05/26 03:19:06;;;;;;;2.08;0.30;;;10.20;91.30;;;;;;4893408;29;20048;-63
2021/05/26 03:21:34;;;;;;;3.00;0.35;;;10.10;91.60;;;;;;4895829;29;20052;-63
2021/05/26 03:24:30;;;;;;;3.35;0.82;;;10.10;92.20;;;;;;4883135;29;20052;-62
2021/05/26 03:26:58;;;;;;;3.08;0.80;;;10.10;92.40;;;;;;4892323;29;20047;-63
2021/05/26 03:29:25;;;;;;;3.38;0.70;;;10.10;92.60;;;;;;4888551;29;20057;-63
2021/05/26 03:31:52;;;;;;;5.47;0.95;;;10.10;92.80;;;;;;4893063;29;20119;-62
2021/05/26 03:34:22;;;;;;;3.38;1.13;;;10.10;92.70;;;;;;4894911;29;20039;-62
2021/05/26 03:36:50;;;;;;;2.97;0.65;;;10.20;92.50;;;;;;4893122;29;20381;-63
2021/05/26 03:39:17;;;;;;;2.42;0.63;;;10.20;92.30;;;;;;4894049;29;20841;-63
2021/05/26 03:41:44;;;;;;;1.63;0.47;;;10.20;92.40;;;;;;4892995;29;20060;-63
2021/05/26 03:44:11;;;;;;;4.43;0.93;;;10.20;92.90;;;;;;4894854;29;20039;-62
2021/05/26 03:46:39;;;;;;;4.05;0.80;;;10.30;93.00;;;;;;4891500;29;20040;-63
2021/05/26 03:49:08;;;;;;;4.63;1.20;;;10.40;93.00;;;;;;4892589;29;20396;-63
2021/05/26 03:51:36;;;;;;;4.22;1.35;;;10.50;92.80;;;;;;4878555;29;20526;-62
2021/05/26 03:54:05;;;;;;;3.80;0.70;;;10.60;92.70;;;;;;4891677;29;20059;-63
2021/05/26 03:56:43;;;;;;;2.15;0.68;;;10.60;92.80;;;;;;4888723;29;20702;-62
2021/05/26 03:59:13;;;;;;;1.85;0.65;;;10.60;92.20;;;;;;4908214;29;20510;-63
2021/05/26 04:01:43;;;;;;;2.63;0.80;;;10.60;92.50;;;;;;4893611;29;20044;-63
2021/05/26 04:04:11;;;;;;;3.08;1.23;;;10.60;93.00;;;;;;4892345;29;20055;-63
2021/05/26 04:06:38;;;;;;;2.75;0.95;;;10.70;93.00;;;;;;4891981;29;20047;-63
2021/05/26 04:09:06;;;;;;;5.65;1.73;;;10.70;93.00;;;;;;4892221;29;20108;-63
2021/05/26 04:11:40;;;;;;;2.83;1.15;;;10.70;92.90;;;;;;4894391;29;20123;-63
2021/05/26 04:14:39;;;;;;;3.65;1.63;;;10.70;92.80;;;;;;4882738;29;20053;-62
2021/05/26 04:17:25;;;;;;;2.95;1.05;;;10.80;92.80;;;;;;4895067;29;20055;-62
2021/05/26 04:20:04;;;;;;;3.20;0.80;;;10.80;92.70;;;;;;4893429;29;20514;-63
2021/05/26 04:22:35;;;;;;;2.53;1.25;;;10.90;92.80;;;;;;4892503;29;20511;-63
2021/05/26 04:25:05;;;;;;;2.88;0.65;;;10.90;93.00;;;;;;4895628;29;20100;-63
2021/05/26 04:27:33;;;;;;;3.35;1.10;;;10.80;93.00;;;;;;4894230;29;20051;-63
2021/05/26 04:30:02;;;;;;;3.00;0.57;;;10.90;93.20;;;;;;4895881;29;20135;-62
2021/05/26 04:32:34;;;;;;;1.88;0.70;;;10.90;93.10;;;;;;4893539;29;20049;-62
2021/05/26 04:35:02;;;;;;;2.60;0.88;;;11.00;93.30;;;;;;4897622;29;20048;-63
2021/05/26 04:37:29;;;;;;;3.40;0.80;;;11.00;93.50;;;;;;4895870;29;20419;-63
2021/05/26 04:39:56;;;;;;;3.78;1.27;;;11.00;93.50;;;;;;4896017;29;20060;-63
2021/05/26 04:42:23;;;;;;;3.35;0.85;;;11.00;93.30;;;;;;4896303;29;20060;-63
2021/05/26 04:44:50;;;;;;;3.45;0.65;;;11.00;93.30;;;;;;4896123;29;20048;-63
2021/05/26 04:47:18;;;;;;;3.42;1.05;;;11.10;93.40;;;;;;4896661;29;20140;-62
2021/05/26 04:49:45;;;;;;;2.95;0.90;;;11.10;93.40;;;;;;4896847;29;20052;-63
2021/05/26 04:52:12;;;;;;;3.78;0.60;;;11.20;93.30;;;;;;4897416;29;20037;-63
2021/05/26 04:54:39;;;;;;;2.95;1.30;;;11.30;93.10;;;;;;4893530;29;20036;-63
2021/05/26 04:57:06;;;;;;;4.18;1.25;;;11.30;92.80;;;;;;4894175;29;20749;-63
2021/05/26 04:59:33;;;;;;;1.88;0.75;;;11.40;92.90;;;;;;4894905;29;20041;-63
2021/05/26 05:02:01;;;;;;;4.45;0.85;;;11.50;92.30;;;;;;4895245;29;20049;-63
2021/05/26 05:04:28;;;;;;;4.05;0.68;;;11.50;92.60;;;;;;4897392;29;20087;-63
2021/05/26 05:06:56;;;;;;;2.25;0.60;;;11.50;92.60;;;;;;4895397;29;20135;-63
2021/05/26 05:09:23;;;;;;;3.13;0.77;;;11.50;93.00;;;;;;4894721;29;20051;-62
2021/05/26 05:11:51;;;;;;;2.10;0.75;;;11.60;92.90;;;;;;4896303;29;20052;-63
2021/05/26 05:14:18;;;;;;;1.92;0.77;;;11.70;91.90;;;;;;4894518;29;20043;-63
2021/05/26 05:16:46;;;;;;;1.95;0.93;;;11.70;92.10;;;;;;4894092;29;20048;-62
2021/05/26 05:19:13;;;;;;;3.33;0.70;;;11.90;92.00;;;;;;4898696;29;20843;-63
2021/05/26 05:21:40;;;;;;;4.07;0.55;;;12.00;92.10;;;;;;4899576;29;20044;-63
2021/05/26 05:24:07;;;;;;;2.20;0.82;;;12.10;92.00;;;;;;4907136;29;20380;-63
2021/05/26 05:26:34;;;;;;;1.23;0.52;;;12.10;91.40;;;;;;4893774;29;20045;-63
2021/05/26 05:29:01;;;;;;;2.25;0.38;;;12.20;91.10;;;;;;4897845;29;20068;-63
2021/05/26 05:31:31;;;;;;;1.92;0.43;;;12.30;90.40;;;;;;4897639;29;21845;-62
2021/05/26 05:33:58;;;;;;;3.13;0.55;;;12.40;90.50;;;;;;4897877;29;20072;-63
2021/05/26 05:36:25;;;;;;;2.63;0.63;;;12.50;90.60;;;;;;4897675;29;20056;-63
2021/05/26 05:38:52;;;;;;;0.93;0.30;;;12.50;90.60;;;;;;4897986;29;20061;-63
2021/05/26 05:41:20;;;;;;;3.95;1.05;;;12.60;89.60;;;;;;4897254;29;20072;-63
2021/05/26 05:43:47;;;;;;;1.52;0.55;;;12.70;88.60;;;;;;4894012;29;20044;-63
2021/05/26 05:46:14;;;;;;;3.92;1.10;;;12.80;88.50;;;;;;4894378;29;20472;-62
2021/05/26 05:48:41;;;;;;;1.42;0.35;;;12.80;89.20;;;;;;4895158;29;20045;-63
2021/05/26 05:51:08;;;;;;;1.88;0.35;;;12.80;89.20;;;;;;4895508;29;20053;-63
2021/05/26 05:53:35;;;;;;;2.53;0.50;;;12.90;89.00;;;;;;4892269;29;20456;-63
2021/05/26 05:56:03;;;;;;;2.22;1.05;;;12.90;89.50;;;;;;4896815;29;20048;-63
2021/05/26 05:58:30;;;;;;;2.67;0.57;;;12.90;88.80;;;;;;4899161;29;20064;-63
2021/05/26 06:00:58;;;;;;;3.85;0.75;;;13.00;89.50;;;;;;4903134;29;20052;-62
2021/05/26 06:03:26;;;;;;;2.17;0.52;;;13.00;88.20;;;;;;4886499;29;20369;-63
2021/05/26 06:05:53;;;;;;;2.70;0.50;;;13.10;88.10;;;;;;4904182;29;20052;-63
2021/05/26 06:08:22;;;;;;;2.67;0.50;;;13.20;88.80;;;;;;4898978;29;20415;-63
2021/05/26 06:10:50;;;;;;;3.25;1.00;;;13.20;88.40;;;;;;4897820;29;20412;-63
2021/05/26 06:13:17;;;;;;;2.45;0.40;;;13.20;88.20;;;;;;4900805;29;20488;-63
2021/05/26 06:15:44;;;;;;;3.50;0.60;;;13.30;88.30;;;;;;4901879;29;20045;-63
2021/05/26 06:18:11;;;;;;;1.60;0.40;;;13.30;88.30;;;;;;4902075;29;20433;-62
2021/05/26 06:20:38;;;;;;;1.00;0.30;;;13.40;87.70;;;;;;4895822;29;20096;-63
2021/05/26 06:23:05;;;;;;;1.77;0.70;;;13.50;89.10;;;;;;4901962;29;20465;-63
2021/05/26 06:25:34;;;;;;;1.55;0.40;;;13.50;86.60;;;;;;4905122;29;20041;-63
2021/05/26 06:28:02;;;;;;;1.60;0.20;;;13.60;83.70;;;;;;4903877;29;20040;-63
2021/05/26 06:30:29;;;;;;;1.73;0.13;;;13.60;82.60;;;;;;4904492;29;20160;-63
2021/05/26 06:32:56;;;;;;;2.30;0.35;;;13.70;82.10;;;;;;4904218;29;20060;-63
2021/05/26 06:35:23;;;;;;;2.28;0.20;;;13.70;81.50;;;;;;4905409;29;20052;-63
2021/05/26 06:37:50;;;;;;;3.17;0.30;;;13.70;79.50;;;;;;4905263;29;20040;-62
2021/05/26 06:40:17;;;;;;;0.98;0.30;;;13.80;83.60;;;;;;4895873;29;20415;-63
2021/05/26 06:42:45;;;;;;;2.33;0.20;;;13.80;83.00;;;;;;4905031;29;20400;-63
2021/05/26 06:45:13;;;;;;;0.80;0.45;;;13.80;83.20;;;;;;4903418;29;20040;-63
2021/05/26 06:47:40;;;;;;;1.92;0.20;;;13.90;81.60;;;;;;4896337;29;20040;-63
2021/05/26 06:50:07;;;;;;;1.20;0.10;;;13.90;81.00;;;;;;4892506;29;20092;-63
2021/05/26 06:52:35;;;;;;;1.73;0.20;;;14.00;80.50;;;;;;4894707;29;20127;-62
2021/05/26 06:55:07;;;;;;;1.40;0.30;;;14.00;80.90;;;;;;4895736;29;20052;-63
2021/05/26 06:57:34;;;;;;;0.75;0.20;;;14.10;81.10;;;;;;4893390;29;20045;-62
2021/05/26 07:00:02;;;;;;;1.08;0.40;;;14.10;80.00;;;;;;4892504;29;20143;-62
2021/05/26 07:02:29;;;;;;;0.68;0.10;;;14.20;80.10;;;;;;4883975;29;20041;-63
2021/05/26 07:04:56;;;;;;;2.58;0.30;;;14.20;80.30;;;;;;4891791;29;20044;-63
2021/05/26 07:07:23;;;;;;;3.25;0.20;;;14.30;79.80;;;;;;4894564;29;20041;-63
2021/05/26 07:09:50;;;;;;;1.58;0.17;;;14.30;79.90;;;;;;4895180;29;20512;-62
2021/05/26 07:12:18;;;;;;;1.40;0.25;;;14.40;78.80;;;;;;4894859;29;20079;-62
2021/05/26 07:14:46;;;;;;;3.17;0.10;;;14.40;77.10;;;;;;4882940;29;20041;-62
2021/05/26 07:17:13;;;;;;;3.28;0.25;;;14.40;77.80;;;;;;4881906;29;20071;-63
2021/05/26 07:19:43;;;;;;;0.98;0.28;;;14.50;75.30;;;;;;4892136;29;20147;-63
2021/05/26 07:22:11;;;;;;;0.85;0.10;;;14.50;76.80;;;;;;4892621;29;20050;-62
2021/05/26 07:24:38;;;;;;;1.67;0.30;;;14.50;77.20;;;;;;4894302;29;20045;-62
2021/05/26 07:27:06;;;;;;;1.02;0.28;;;14.60;76.40;;;;;;4894624;29;20510;-62
2021/05/26 07:29:33;;;;;;;0.50;0.15;;;14.60;74.20;;;;;;4895206;29;20044;-63
2021/05/26 07:32:00;;;;;;;0.40;0.13;;;14.60;72.80;;;;;;4895702;29;20055;-62
2021/05/26 07:34:27;;;;;;;0.60;0.10;;;14.60;73.80;;;;;;4910547;29;20059;-63
2021/05/26 07:36:54;;;;;;;1.40;0.50;;;14.70;72.40;;;;;;4900562;29;20100;-62
2021/05/26 07:39:22;;;;;;;2.85;0.20;;;14.70;72.70;;;;;;4896656;29;20056;-63
2021/05/26 07:41:49;;;;;;;0.57;0.10;;;14.70;74.00;;;;;;4892208;29;20072;-62
2021/05/26 07:44:16;;;;;;;0.60;0.20;;;14.80;71.60;;;;;;4891809;29;20051;-62
2021/05/26 07:46:44;;;;;;;2.50;0.63;;;14.80;72.80;;;;;;4893900;29;20037;-62
2021/05/26 07:49:11;;;;;;;2.47;0.32;;;14.80;72.70;;;;;;4906240;29;20392;-62
2021/05/26 07:51:44;;;;;;;2.50;0.10;;;14.80;71.20;;;;;;4900872;29;20384;-62
2021/05/26 07:54:12;;;;;;;2.17;0.10;;;14.90;72.00;;;;;;4900174;29;20055;-63
2021/05/26 07:56:39;;;;;;;2.83;0.10;;;14.90;72.20;;;;;;4896493;29;20037;-63
2021/05/26 07:59:07;;;;;;;1.88;0.30;;;14.90;72.20;;;;;;4882181;29;20053;-63
2021/05/26 08:01:34;;;;;;;0.65;0.10;;;14.90;69.90;;;;;;4899286;29;20704;-62
2021/05/26 08:04:01;;;;;;;0.75;0.10;;;15.00;69.60;;;;;;4901178;29;20044;-63
2021/05/26 08:06:28;;;;;;;2.28;0.57;;;15.00;69.50;;;;;;4892672;29;20095;-62
2021/05/26 08:08:56;;;;;;;1.00;0.10;;;15.10;68.00;;;;;;4898432;29;20062;-62
2021/05/26 08:11:24;;;;;;;2.85;0.10;;;15.00;68.80;;;;;;4895906;29;20059;-63
2021/05/26 08:13:52;;;;;;;0.68;0.10;;;15.10;69.00;;;;;;4902404;29;20535;-63
2021/05/26 08:16:19;;;;;;;0.85;0.10;;;15.10;69.50;;;;;;4892106;29;20048;-63
2021/05/26 08:18:46;;;;;;;1.50;0.13;;;15.10;72.50;;;;;;4895254;29;20064;-63
2021/05/26 08:21:15;;;;;;;0.52;0.10;;;15.10;73.20;;;;;;4904681;29;20048;-63
2021/05/26 08:23:43;;;;;;;1.40;0.35;;;15.10;73.00;;;;;;4886026;29;20567;-63
2021/05/26 08:26:12;;;;;;;0.35;0.10;;;15.20;68.90;;;;;;4898884;29;20048;-62
2021/05/26 08:28:39;;;;;;;3.15;0.10;;;15.20;68.60;;;;;;4895256;29;20535;-62
2021/05/26 08:31:07;;;;;;;2.10;0.40;;;15.30;69.40;;;;;;4890427;29;20050;-63
2021/05/26 08:33:34;;;;;;;4.75;0.20;;;15.40;66.50;;;;;;4887714;29;20579;-62
2021/05/26 08:36:01;;;;;;;4.13;0.22;;;15.40;68.60;;;;;;4893542;29;20104;-62
2021/05/26 08:38:28;;;;;;;0.90;0.20;;;15.50;67.10;;;;;;4897825;29;20060;-62
2021/05/26 08:40:55;;;;;;;8.80;0.35;;;15.50;66.40;;;;;;4896766;29;20053;-63
2021/05/26 08:43:24;;;;;;;0.40;0.20;;;15.50;68.30;;;;;;4899549;29;20588;-63
2021/05/26 08:45:52;;;;;;;1.52;0.08;;;15.60;68.40;;;;;;4888151;29;20739;-65
2021/05/26 08:48:22;;;;;;;1.40;0.10;;;15.60;67.30;;;;;;4893130;29;20048;-63
2021/05/26 08:50:50;;;;;;;1.25;0.20;;;15.60;68.60;;;;;;4892720;29;20066;-63
2021/05/26 08:53:18;;;;;;;0.55;0.10;;;15.80;67.10;;;;;;4908800;29;20052;-63
2021/05/26 08:55:45;;;;;;;1.95;0.10;;;15.80;64.70;;;;;;4895700;29;20049;-63
2021/05/26 08:58:12;;;;;;;0.93;0.10;;;15.90;65.50;;;;;;4899311;29;20048;-63
2021/05/26 09:00:39;;;;;;;5.07;0.13;;;15.90;64.20;;;;;;4897445;29;20084;-63
2021/05/26 09:03:06;;;;;;;0.68;0.10;;;15.90;64.90;;;;;;4900771;29;20547;-63
2021/05/26 09:05:34;;;;;;;1.48;0.25;;;15.90;64.30;;;;;;4901372;29;20455;-63
2021/05/26 09:08:21;;;;;;;2.35;0.15;;;16.00;63.20;;;;;;4896546;29;20135;-63
2021/05/26 09:10:50;;;;;;;1.25;0.10;;;16.00;64.40;;;;;;4901396;29;20380;-63
2021/05/26 09:13:38;;;;;;;3.65;0.13;;;16.10;63.40;;;;;;4895167;29;20053;-63
2021/05/26 09:16:23;;;;;;;1.75;0.10;;;16.10;63.20;;;;;;4897910;29;20135;-63
2021/05/26 09:18:55;;;;;;;1.40;0.20;;;16.10;64.40;;;;;;4900547;29;20663;-63
2021/05/26 09:21:38;;;;;;;0.73;0.20;;;16.10;62.90;;;;;;4897832;29;20049;-63
2021/05/26 09:24:20;;;;;;;1.55;0.10;;;16.30;62.50;;;;;;4891211;29;20056;-63
2021/05/26 09:26:51;;;;;;;;;;;16.40;61.40;;;;;;4911615;29;20041;-63
2021/05/26 09:29:27;;;;;;;0.80;0.20;;;16.50;62.20;;;;;;4900724;29;19931;-63
2021/05/26 09:32:15;;;;;;;2.20;0.17;;;16.50;61.10;;;;;;4896364;29;20056;-63
2021/05/26 09:34:51;;;;;;;2.67;0.20;;;16.60;62.60;;;;;;4898333;29;20373;-63
2021/05/26 09:37:20;;;;;;;2.83;0.20;;;16.60;63.30;;;;;;4908508;29;20470;-63
2021/05/26 09:40:03;;;;;;;1.88;0.25;;;16.50;64.20;;;;;;4897744;29;20052;-63
2021/05/26 09:42:32;;;;;;;;;;;16.60;64.30;;;;;;4894411;29;20057;-63
2021/05/26 09:45:09;;;;;;;1.88;0.10;;;16.60;63.80;;;;;;4897449;29;20049;-63
2021/05/26 09:47:51;;;;;;;1.85;0.10;;;16.70;62.50;;;;;;4898883;29;20084;-63
2021/05/26 09:50:36;;;;;;;0.25;0.10;;;16.80;61.00;;;;;;4897365;29;20051;-63
2021/05/26 09:53:12;;;;;;;3.33;0.20;;;16.90;60.80;;;;;;4908897;29;20076;-63
2021/05/26 09:55:44;;;;;;;0.85;0.10;;;16.80;61.60;;;;;;4898675;29;20055;-63
2021/05/26 09:58:16;;;;;;;0.85;0.17;;;16.90;60.60;;;;;;4896868;29;20084;-63
2021/05/26 10:00:45;;;;;;;1.95;0.30;;;16.90;61.90;;;;;;4897516;29;20120;-63
2021/05/26 10:03:13;;;;;;;0.73;0.10;;;16.90;59.70;;;;;;4896928;29;20488;-63
2021/05/26 10:05:41;;;;;;;2.47;0.10;;;17.00;59.30;;;;;;4897451;29;20137;-63
2021/05/26 10:08:27;;;;;;;3.60;0.10;;;17.10;58.40;;;;;;4891946;29;20096;-63
2021/05/26 10:11:18;;;;;;;3.15;0.13;;;17.10;56.50;;;;;;4883775;29;20053;-63
2021/05/26 10:13:51;;;;;;;6.82;0.22;;;17.10;59.80;;;;;;4893764;29;20109;-63
2021/05/26 10:16:19;;;;;;;0.50;0.10;;;17.20;61.50;;;;;;4902831;29;20043;-63
2021/05/26 10:18:47;;;;;;;1.17;0.20;;;17.20;60.90;;;;;;4898051;29;20049;-63
2021/05/26 10:21:22;;;;;;;4.05;0.50;;;17.30;60.70;;;;;;4892211;29;20052;-63
2021/05/26 10:23:56;;;;;;;2.72;0.25;;;17.30;59.30;;;;;;4896237;29;20123;-63
2021/05/26 10:26:55;;;;;;;3.42;0.40;;;17.30;60.40;;;;;;4897175;29;20053;-63
2021/05/26 10:29:33;;;;;;;1.10;0.10;;;17.40;58.20;;;;;;4899143;29;20036;-63
2021/05/26 10:32:14;;;;;;;2.33;0.20;;;17.40;61.40;;;;;;4902077;29;20057;-63
2021/05/26 10:34:47;;;;;;;1.77;0.32;;;17.40;56.80;;;;;;4906063;29;20055;-63
2021/05/26 10:37:32;;;;;;;0.50;0.10;;;17.40;57.70;;;;;;4896824;29;20059;-63
2021/05/26 10:40:01;;;;;;;3.03;0.20;;;17.50;58.60;;;;;;4890419;29;20053;-63
2021/05/26 10:42:28;;;;;;;1.45;0.20;;;17.60;60.20;;;;;;4893533;29;20048;-63
2021/05/26 10:44:55;;;;;;;1.70;0.10;;;17.60;57.90;;;;;;4877411;29;20053;-63
2021/05/26 10:47:44;;;;;;;1.13;0.17;;;17.60;58.80;;;;;;4896628;29;20055;-63
2021/05/26 10:50:23;;;;;;;1.27;0.30;;;17.70;58.90;;;;;;4897532;29;20473;-63
2021/05/26 10:52:56;;;;;;;0.85;0.20;;;17.70;57.20;;;;;;4896202;29;20040;-63
2021/05/26 10:55:41;;;;;;;0.30;0.10;;;17.70;56.20;;;;;;4894687;29;20408;-63
2021/05/26 10:58:37;;;;;;;0.73;0.32;;;17.80;56.70;;;;;;4896111;29;20052;-63
2021/05/26 11:01:04;;;;;;;0.85;0.30;;;17.80;56.90;;;;;;4890611;29;20052;-63
2021/05/26 11:03:35;;;;;;;0.30;0.10;;;17.80;56.40;;;;;;4898442;29;20048;-63
2021/05/26 11:06:28;;;;;;;3.00;0.40;;;17.90;58.20;;;;;;4896757;29;20044;-63
2021/05/26 11:08:55;;;;;;;1.50;0.13;;;18.00;58.70;;;;;;4892249;29;20076;-63
2021/05/26 11:11:31;;;;;;;1.27;0.20;;;18.20;55.90;;;;;;4894269;29;20395;-63
2021/05/26 11:14:14;;;;;;;0.60;0.10;;;18.10;57.10;;;;;;4893737;29;20048;-63
2021/05/26 11:16:45;;;;;;;2.53;0.10;;;18.10;56.40;;;;;;4895983;29;20045;-63
2021/05/26 11:19:20;;;;;;;3.03;0.30;;;18.20;55.50;;;;;;4896664;29;20040;-63
2021/05/26 11:21:55;;;;;;;1.25;0.10;;;18.30;56.00;;;;;;4897120;29;20135;-63
2021/05/26 11:24:26;;;;;;;7.70;0.95;;;18.40;54.80;;;;;;4886192;29;20048;-63
2021/05/26 11:26:53;;;;;;;0.70;0.10;;;18.50;57.20;;;;;;4906111;29;20040;-64
2021/05/26 11:29:27;;;;;;;0.40;0.10;;;18.50;56.10;;;;;;4890538;29;20136;-63
2021/05/26 11:32:09;;;;;;;0.70;0.10;;;18.50;56.40;;;;;;4899805;29;20067;-63
2021/05/26 11:34:37;;;;;;;2.75;0.20;;;18.50;55.80;;;;;;4887385;29;20049;-67
2021/05/26 11:37:05;;;;;;;2.60;0.38;;;18.50;57.40;;;;;;4892103;29;20044;-66
2021/05/26 11:39:33;;;;;;;2.25;0.10;;;18.60;57.10;;;;;;4885256;29;20061;-67
2021/05/26 11:42:30;;;;;;;1.90;0.20;;;18.60;55.00;;;;;;4892723;29;20056;-67
2021/05/26 11:45:07;;;;;;;2.33;0.20;;;18.60;59.30;;;;;;4867249;29;20057;-66
2021/05/26 11:48:04;;;;;;;1.42;0.40;;;18.80;56.50;;;;;;4901403;29;20103;-67
2021/05/26 11:50:32;;;;;;;1.65;0.10;;;19.00;55.50;;;;;;4903805;29;20059;-67
2021/05/26 11:52:59;;;;;;;3.92;0.20;;;19.50;54.30;;;;;;4881638;29;20567;-67
2021/05/26 11:55:27;;;;;;;1.02;0.20;;;20.10;56.90;;;;;;4899223;29;20040;-67
2021/05/26 11:57:55;;;;;;;1.60;0.40;;;20.80;51.40;;;;;;4898872;29;20455;-66
2021/05/26 12:00:30;;;;;;;1.10;0.20;;;21.60;51.00;;;;;;4896551;29;20052;-67
2021/05/26 12:03:13;;;;;;;3.00;0.20;;;22.40;49.20;;;;;;4902308;29;20045;-67
2021/05/26 12:05:53;;;;;;;1.70;0.20;;;23.10;47.30;;;;;;4916976;29;20048;-66
2021/05/26 12:08:28;;;;;;;2.05;0.80;;;23.40;46.20;;;;;;4894327;29;20049;-66
2021/05/26 12:10:58;;;;;;;1.45;0.10;;;23.50;44.40;;;;;;4894766;29;20040;-65
2021/05/26 12:13:31;;;;;;;3.92;0.32;;;23.70;45.10;;;;;;4905457;29;21004;-65
2021/05/26 12:16:02;;;;;;;1.48;0.20;;;24.10;44.30;;;;;;4902737;29;20056;-65
2021/05/26 12:18:29;;;;;;;1.33;0.20;;;24.40;45.20;;;;;;4903152;29;20453;-65
2021/05/26 12:20:57;;;;;;;0.73;0.38;;;24.90;45.00;;;;;;4899021;29;20080;-64
2021/05/26 12:23:33;;;;;;;1.52;0.20;;;25.10;42.00;;;;;;4905320;29;20100;-65
2021/05/26 12:26:19;;;;;;;0.85;0.20;;;25.40;43.10;;;;;;4894926;29;20547;-65
2021/05/26 12:28:46;;;;;;;0.30;0.10;;;25.80;41.50;;;;;;4885103;29;20040;-65
2021/05/26 12:31:14;;;;;;;2.10;0.20;;;26.20;41.50;;;;;;4897763;29;20045;-65
2021/05/26 12:33:53;;;;;;;1.00;0.10;;;26.30;40.90;;;;;;4914049;29;20041;-65
2021/05/26 12:36:23;;;;;;;3.55;0.30;;;26.40;41.50;;;;;;4901302;29;20049;-65
2021/05/26 12:39:05;;;;;;;4.60;0.28;;;26.40;40.40;;;;;;4894288;29;20060;-65
2021/05/26 12:41:34;;;;;;;1.15;0.05;;;26.30;39.70;;;;;;4897266;29;20048;-65
2021/05/26 12:44:08;;;;;;;0.55;0.20;;;26.30;44.10;;;;;;4886066;29;20048;-65
2021/05/26 12:46:52;;;;;;;1.08;0.20;;;26.50;41.30;;;;;;4893791;29;20557;-65
2021/05/26 12:49:50;;;;;;;0.70;0.10;;;26.60;39.70;;;;;;4887222;29;20528;-65
2021/05/26 12:52:27;;;;;;;1.00;0.50;;;26.80;41.00;;;;;;4899612;29;20691;-65
2021/05/26 12:54:54;;;;;;;1.48;0.35;;;26.50;39.00;;;;;;4896926;29;20492;-65
2021/05/26 12:57:24;;;;;;;1.17;0.17;;;26.90;40.70;;;;;;4900707;29;20040;-65
2021/05/26 12:59:56;;;;;;;3.10;0.10;;;27.00;37.40;;;;;;4902208;29;20055;-65
2021/05/26 13:02:36;;;;;;;0.60;0.10;;;26.90;40.30;;;;;;4902855;29;20051;-65
2021/05/26 13:05:06;;;;;;;3.00;0.50;;;27.10;37.10;;;;;;4895494;29;20128;-65
2021/05/26 13:07:37;;;;;;;1.27;0.30;;;27.10;38.90;;;;;;4898129;29;20044;-65
2021/05/26 13:10:23;;;;;;;5.68;0.20;;;27.20;39.10;;;;;;4904844;29;20055;-65